Terminal Aerodrome Forecast
Issued by NWS

Home | Current Version | Previous Version | Text Only | Print | Product List | Glossary On
Versions: 1 2 3 4 5 6 7 8 9 10 11 12 13 14 15
000
FTUS46 KPDT 291646 AAA
TAFPSC
TAF AMD
KPSC 291646Z 2917/3012 26020G28KT P6SM FEW020 BKN100
      TEMPO 2917/2919 5SM BLDU BKN018
     FM300100 25011KT P6SM SCT090
     FM300400 26010KT P6SM SCT100
     FM300700 22009KT P6SM BKN090=

USA.gov is the U.S. government's official web portal to all federal, state and local government web resources and services.